createdAt,value
2017-07-08T00:01:18.633Z,18.90
2017-07-08T00:03:46.079Z,19.00
2017-07-08T00:06:14.293Z,19.20
2017-07-08T00:08:41.749Z,19.20
2017-07-08T00:11:09.191Z,19.30
2017-07-08T00:13:36.647Z,19.20
2017-07-08T00:16:04.084Z,19.20
2017-07-08T00:18:32.306Z,19.10
2017-07-08T00:20:59.749Z,19.10
2017-07-08T00:23:27.196Z,19.10
2017-07-08T00:25:54.659Z,19.00
2017-07-08T00:28:22.096Z,19.00
2017-07-08T00:30:49.544Z,19.10
2017-07-08T00:33:17.752Z,19.00
2017-07-08T00:35:45.208Z,19.00
2017-07-08T00:38:12.656Z,19.00
2017-07-08T00:40:40.121Z,18.90
2017-07-08T00:43:07.568Z,18.90
2017-07-08T00:45:35.016Z,18.90
2017-07-08T00:48:02.455Z,18.90
2017-07-08T00:50:30.676Z,18.80
2017-07-08T00:52:58.118Z,18.80
2017-07-08T00:55:25.552Z,18.90
2017-07-08T00:57:53.002Z,18.90
2017-07-08T01:00:21.207Z,18.50
2017-07-08T01:02:48.665Z,18.50
2017-07-08T01:05:16.103Z,18.40
2017-07-08T01:07:43.561Z,18.40
2017-07-08T01:10:10.991Z,18.40
2017-07-08T01:12:38.452Z,18.30
2017-07-08T01:15:06.652Z,18.10
2017-07-08T01:17:34.103Z,18.10
2017-07-08T01:20:01.552Z,18.00
2017-07-08T01:22:29.755Z,17.70
2017-07-08T01:24:57.204Z,17.70
2017-07-08T01:27:24.675Z,17.60
2017-07-08T01:29:52.116Z,17.60
2017-07-08T01:32:19.553Z,17.50
2017-07-08T01:34:47.012Z,17.50
2017-07-08T01:37:14.460Z,17.60
2017-07-08T01:39:42.692Z,17.50
2017-07-08T01:42:10.127Z,17.50
2017-07-08T01:44:37.581Z,17.50
2017-07-08T01:47:05.012Z,17.40
2017-07-08T01:49:32.471Z,17.40
2017-07-08T01:52:04.525Z,17.50
2017-07-08T01:54:32.748Z,17.50
2017-07-08T01:57:00.194Z,17.40
2017-07-08T01:59:27.639Z,17.50
2017-07-08T02:01:55.077Z,17.60
2017-07-08T02:04:23.285Z,17.70
2017-07-08T02:06:50.738Z,17.70
2017-07-08T02:09:18.183Z,17.70
2017-07-08T02:11:45.638Z,17.70
2017-07-08T02:14:13.072Z,17.50
2017-07-08T02:16:41.291Z,17.20
2017-07-08T02:19:08.737Z,17.20
2017-07-08T02:21:36.185Z,17.10
2017-07-08T02:24:03.638Z,17.00
2017-07-08T02:26:31.094Z,16.90
2017-07-08T02:28:58.531Z,16.90
2017-07-08T02:31:26.747Z,17.10
2017-07-08T02:33:54.196Z,17.10
2017-07-08T02:36:21.647Z,17.10
2017-07-08T02:38:49.085Z,17.10
2017-07-08T02:41:16.524Z,17.00
2017-07-08T02:43:43.980Z,17.00
2017-07-08T02:46:11.425Z,16.90
2017-07-08T02:48:38.873Z,16.90
2017-07-08T02:51:06.319Z,16.80
2017-07-08T02:53:37.528Z,16.80
2017-07-08T02:56:04.964Z,16.80
2017-07-08T02:58:33.182Z,16.80
2017-07-08T03:01:00.629Z,16.80
2017-07-08T03:03:28.091Z,16.80
2017-07-08T03:05:55.528Z,16.70
2017-07-08T03:08:22.977Z,16.70
2017-07-08T03:10:50.415Z,16.70
2017-07-08T03:13:17.863Z,16.80
2017-07-08T03:15:46.067Z,16.70
2017-07-08T03:18:13.516Z,16.70
2017-07-08T03:20:40.955Z,16.70
2017-07-08T03:23:08.411Z,16.70
2017-07-08T03:25:35.868Z,16.80
2017-07-08T03:28:03.307Z,16.80
2017-07-08T03:30:30.752Z,16.70
2017-07-08T03:32:58.221Z,16.60
2017-07-08T03:35:25.664Z,16.40
2017-07-08T03:37:53.107Z,16.40
2017-07-08T03:40:20.568Z,16.50
2017-07-08T03:42:48.006Z,16.40
2017-07-08T03:45:15.460Z,16.20
2017-07-08T03:47:42.920Z,16.10
2017-07-08T03:50:10.364Z,16.30
2017-07-08T03:52:41.244Z,16.30
2017-07-08T03:55:08.697Z,16.20
2017-07-08T03:57:36.144Z,16.30
2017-07-08T04:00:03.606Z,16.40
2017-07-08T04:02:31.048Z,16.40
2017-07-08T04:04:58.504Z,16.30
2017-07-08T04:07:25.940Z,16.40
2017-07-08T04:09:53.405Z,16.50
2017-07-08T04:12:20.843Z,16.50
2017-07-08T04:14:48.302Z,16.60
2017-07-08T04:17:15.740Z,16.50
2017-07-08T04:19:43.193Z,16.70
2017-07-08T04:22:10.644Z,17.00
2017-07-08T04:24:38.080Z,17.20
2017-07-08T04:27:05.537Z,17.40
2017-07-08T04:29:32.976Z,17.50
2017-07-08T04:32:00.427Z,17.60
2017-07-08T04:34:27.867Z,17.70
2017-07-08T04:36:55.315Z,17.70
2017-07-08T04:39:22.765Z,17.80
2017-07-08T04:41:50.992Z,18.10
2017-07-08T04:44:18.435Z,18.10
2017-07-08T04:46:45.889Z,18.10
2017-07-08T04:49:14.136Z,18.20
2017-07-08T04:51:41.609Z,18.30
2017-07-08T04:54:09.053Z,18.50
2017-07-08T04:56:36.485Z,18.70
2017-07-08T04:59:03.932Z,19.00
2017-07-08T05:01:31.372Z,19.30
2017-07-08T05:03:58.820Z,19.70
2017-07-08T05:06:26.259Z,20.00
2017-07-08T05:08:53.712Z,20.40
2017-07-08T05:11:21.156Z,20.80
2017-07-08T05:13:48.604Z,21.20
2017-07-08T05:16:16.047Z,21.50
2017-07-08T05:18:44.285Z,22.20
2017-07-08T05:21:11.723Z,22.20
2017-07-08T05:23:39.172Z,22.80
2017-07-08T05:26:06.633Z,23.20
2017-07-08T05:28:34.089Z,23.70
2017-07-08T05:31:01.540Z,23.90
2017-07-08T05:33:28.979Z,24.20
2017-07-08T05:35:56.432Z,23.90
2017-07-08T05:38:23.875Z,23.40
2017-07-08T05:40:52.092Z,23.00
2017-07-08T05:43:19.549Z,23.00
2017-07-08T05:45:47.000Z,23.00
2017-07-08T05:48:14.439Z,23.10
2017-07-08T05:50:41.892Z,23.30
2017-07-08T05:53:09.341Z,23.10
2017-07-08T05:55:36.787Z,22.90
2017-07-08T05:58:04.992Z,23.10
2017-07-08T06:00:32.440Z,23.00
2017-07-08T06:02:59.884Z,23.00
2017-07-08T06:05:28.101Z,23.00
2017-07-08T06:07:55.546Z,23.00
2017-07-08T06:10:23.004Z,23.20
2017-07-08T06:12:50.443Z,23.40
2017-07-08T06:15:17.881Z,23.50
2017-07-08T06:17:46.095Z,23.80
2017-07-08T06:20:13.547Z,23.80
2017-07-08T06:22:41.003Z,23.90
2017-07-08T06:25:08.443Z,24.10
2017-07-08T06:27:35.891Z,24.40
2017-07-08T06:30:03.331Z,24.70
2017-07-08T06:32:31.553Z,25.90
2017-07-08T06:34:58.988Z,25.80
2017-07-08T06:37:26.452Z,26.50
2017-07-08T06:39:53.897Z,26.80
2017-07-08T06:42:21.353Z,27.20
2017-07-08T06:44:48.792Z,27.50
2017-07-08T06:47:17.024Z,28.80
2017-07-08T06:49:44.464Z,28.70
2017-07-08T06:52:11.920Z,29.40
2017-07-08T06:54:39.381Z,29.80
2017-07-08T06:57:06.815Z,30.10
2017-07-08T06:59:34.263Z,30.40
2017-07-08T07:02:01.713Z,30.70
2017-07-08T07:04:29.932Z,31.30
2017-07-08T07:06:57.379Z,31.30
2017-07-08T07:09:24.841Z,31.60
2017-07-08T07:11:52.276Z,32.10
2017-07-08T07:14:19.725Z,32.30
2017-07-08T07:16:47.172Z,32.50
2017-07-08T07:19:15.393Z,32.80
2017-07-08T07:21:42.836Z,32.80
2017-07-08T07:24:10.303Z,32.90
2017-07-08T07:26:37.739Z,33.20
2017-07-08T07:29:05.208Z,33.40
2017-07-08T07:31:32.650Z,33.20
2017-07-08T07:34:00.095Z,33.40
2017-07-08T07:36:27.544Z,33.70
2017-07-08T07:38:55.758Z,34.10
2017-07-08T07:41:23.209Z,34.10
2017-07-08T07:43:50.656Z,34.30
2017-07-08T07:46:18.108Z,34.60
2017-07-08T07:48:45.557Z,34.50
2017-07-08T07:51:13.003Z,34.70
2017-07-08T07:53:41.210Z,35.80
2017-07-08T07:56:08.663Z,35.70
2017-07-08T07:58:36.101Z,36.00
2017-07-08T08:01:03.558Z,36.20
2017-07-08T08:03:30.998Z,36.00
2017-07-08T08:05:59.213Z,35.70
2017-07-08T08:08:26.679Z,35.70
2017-07-08T08:10:54.127Z,36.00
2017-07-08T08:13:21.577Z,36.40
2017-07-08T08:15:49.016Z,36.20
2017-07-08T08:18:16.472Z,36.60
2017-07-08T08:20:43.908Z,36.90
2017-07-08T08:23:12.127Z,36.80
2017-07-08T08:25:39.572Z,36.80
2017-07-08T08:28:07.028Z,36.10
2017-07-08T08:30:34.476Z,35.90
2017-07-08T08:33:01.935Z,35.70
2017-07-08T08:35:29.382Z,35.70
2017-07-08T08:37:56.824Z,36.00
2017-07-08T08:40:25.041Z,36.30
2017-07-08T08:42:52.488Z,36.30
2017-07-08T08:45:19.952Z,36.70
2017-07-08T08:47:47.412Z,36.50
2017-07-08T08:50:14.851Z,36.60
2017-07-08T08:52:42.296Z,36.10
2017-07-08T08:55:09.748Z,35.60
2017-07-08T08:57:37.960Z,35.10
2017-07-08T09:00:05.412Z,35.10
2017-07-08T09:02:32.861Z,35.20
2017-07-08T09:05:00.299Z,35.10
2017-07-08T09:07:27.762Z,35.10
2017-07-08T09:09:55.200Z,35.40
2017-07-08T09:12:22.656Z,35.70
2017-07-08T09:14:50.875Z,35.20
2017-07-08T09:17:18.332Z,35.20
2017-07-08T09:19:45.789Z,35.20
2017-07-08T09:22:13.244Z,35.50
2017-07-08T09:24:40.688Z,36.20
2017-07-08T09:27:08.140Z,36.60
2017-07-08T09:29:35.591Z,37.10
2017-07-08T09:32:03.056Z,37.10
2017-07-08T09:34:30.495Z,36.10
2017-07-08T09:36:57.948Z,35.40
2017-07-08T09:39:26.154Z,35.70
2017-07-08T09:41:53.616Z,35.70
2017-07-08T09:44:21.052Z,35.80
2017-07-08T09:46:48.530Z,35.80
2017-07-08T09:49:15.978Z,36.00
2017-07-08T09:51:43.415Z,36.20
2017-07-08T09:54:10.877Z,36.10
2017-07-08T09:56:38.312Z,35.60
2017-07-08T09:59:06.531Z,35.60
2017-07-08T10:01:33.976Z,35.60
2017-07-08T10:04:01.439Z,35.20
2017-07-08T10:06:28.876Z,35.40
2017-07-08T10:08:56.327Z,36.00
2017-07-08T10:11:23.772Z,35.90
2017-07-08T10:13:51.997Z,34.80
2017-07-08T10:16:19.437Z,34.80
2017-07-08T10:18:46.889Z,35.10
2017-07-08T10:21:14.326Z,35.90
2017-07-08T10:23:41.774Z,36.90
2017-07-08T10:26:09.992Z,36.60
2017-07-08T10:28:37.435Z,36.60
2017-07-08T10:31:04.901Z,35.60
2017-07-08T10:33:32.349Z,34.80
2017-07-08T10:35:59.800Z,34.80
2017-07-08T10:38:27.240Z,35.30
2017-07-08T10:40:55.460Z,35.50
2017-07-08T10:43:22.905Z,35.50
2017-07-08T10:45:50.367Z,35.90
2017-07-08T10:48:17.823Z,36.60
2017-07-08T10:50:45.280Z,37.30
2017-07-08T10:53:12.725Z,36.70
2017-07-08T10:55:40.184Z,36.80
2017-07-08T10:58:07.632Z,36.70
2017-07-08T11:00:35.083Z,36.80
2017-07-08T11:03:02.536Z,37.40
2017-07-08T11:05:29.984Z,37.80
2017-07-08T11:07:58.200Z,37.50
2017-07-08T11:10:25.651Z,37.50
2017-07-08T11:12:53.108Z,37.70
2017-07-08T11:15:20.551Z,38.10
2017-07-08T11:17:48.029Z,37.90
2017-07-08T11:20:15.460Z,37.00
2017-07-08T11:22:42.915Z,35.80
2017-07-08T11:25:10.365Z,34.60
2017-07-08T11:27:37.827Z,34.10
2017-07-08T11:30:05.267Z,33.50
2017-07-08T11:32:33.491Z,33.10
2017-07-08T11:35:00.936Z,33.00
2017-07-08T11:37:28.387Z,33.00
2017-07-08T11:39:55.832Z,32.80
2017-07-08T11:42:23.276Z,32.90
2017-07-08T11:44:50.723Z,32.40
2017-07-08T11:47:18.931Z,32.00
2017-07-08T11:49:46.396Z,32.00
2017-07-08T11:52:13.842Z,31.80
2017-07-08T11:54:41.288Z,31.30
2017-07-08T11:57:08.732Z,31.10
2017-07-08T11:59:36.961Z,31.40
2017-07-08T12:02:04.408Z,31.40
2017-07-08T12:04:31.874Z,31.90
2017-07-08T12:06:59.315Z,31.90
2017-07-08T12:09:26.788Z,32.00
2017-07-08T12:11:54.286Z,32.40
2017-07-08T12:14:21.672Z,32.30
2017-07-08T12:16:49.135Z,32.20
2017-07-08T12:19:16.571Z,32.60
2017-07-08T12:21:44.032Z,32.90
2017-07-08T12:24:11.468Z,32.50
2017-07-08T12:26:39.696Z,32.90
2017-07-08T12:29:07.152Z,32.80
2017-07-08T12:31:34.620Z,32.90
2017-07-08T12:34:02.073Z,33.40
2017-07-08T12:36:29.529Z,34.00
2017-07-08T12:38:56.965Z,34.00
2017-07-08T12:41:24.415Z,33.90
2017-07-08T12:43:51.864Z,34.70
2017-07-08T12:46:19.315Z,35.40
2017-07-08T12:48:46.756Z,35.80
2017-07-08T12:51:14.965Z,36.60
2017-07-08T12:53:42.428Z,36.50
2017-07-08T12:56:09.868Z,36.70
2017-07-08T12:58:37.328Z,36.40
2017-07-08T13:01:04.976Z,36.00
2017-07-08T13:03:32.429Z,35.90
2017-07-08T13:05:59.873Z,36.10
2017-07-08T13:08:28.098Z,36.70
2017-07-08T13:10:55.531Z,36.70
2017-07-08T13:13:22.991Z,37.40
2017-07-08T13:15:50.427Z,37.10
2017-07-08T13:18:18.722Z,36.70
2017-07-08T13:20:46.113Z,36.70
2017-07-08T13:23:13.559Z,37.00
2017-07-08T13:25:41.016Z,36.40
2017-07-08T13:28:08.464Z,35.70
2017-07-08T13:30:35.929Z,34.80
2017-07-08T13:33:03.375Z,34.60
2017-07-08T13:35:30.834Z,34.30
2017-07-08T13:37:58.272Z,34.40
2017-07-08T13:40:25.728Z,33.90
2017-07-08T13:42:53.180Z,33.30
2017-07-08T13:45:20.633Z,32.70
2017-07-08T13:47:48.077Z,32.50
2017-07-08T13:50:16.292Z,32.80
2017-07-08T13:52:43.732Z,32.80
2017-07-08T13:55:11.176Z,32.90
2017-07-08T13:57:39.404Z,33.90
2017-07-08T14:00:06.851Z,33.90
2017-07-08T14:02:34.314Z,35.00
2017-07-08T14:05:01.754Z,36.10
2017-07-08T14:07:29.212Z,36.80
2017-07-08T14:09:56.652Z,36.90
2017-07-08T14:12:24.112Z,36.50
2017-07-08T14:14:51.683Z,36.70
2017-07-08T14:17:19.156Z,36.40
2017-07-08T14:19:46.604Z,36.80
2017-07-08T14:22:14.050Z,37.10
2017-07-08T14:24:41.503Z,36.80
2017-07-08T14:27:08.946Z,36.10
2017-07-08T14:29:36.392Z,35.80
2017-07-08T14:32:03.835Z,35.60
2017-07-08T14:34:32.064Z,34.90
2017-07-08T14:36:59.508Z,34.90
2017-07-08T14:39:26.966Z,34.50
2017-07-08T14:41:54.409Z,34.50
2017-07-08T14:44:21.860Z,34.80
2017-07-08T14:46:49.297Z,35.50
2017-07-08T14:49:17.529Z,35.10
2017-07-08T14:51:44.971Z,35.10
2017-07-08T14:54:12.424Z,34.50
2017-07-08T14:56:39.881Z,34.40
2017-07-08T14:59:07.332Z,34.20
2017-07-08T15:01:34.797Z,34.50
2017-07-08T15:04:02.232Z,35.00
2017-07-08T15:06:29.686Z,35.90
2017-07-08T15:08:57.128Z,37.00
2017-07-08T15:11:25.355Z,37.50
2017-07-08T15:13:52.800Z,37.50
2017-07-08T15:16:20.276Z,36.50
2017-07-08T15:18:47.724Z,36.10
2017-07-08T15:21:15.167Z,35.60
2017-07-08T15:23:42.619Z,35.20
2017-07-08T15:26:10.064Z,35.00
2017-07-08T15:28:37.532Z,35.90
2017-07-08T15:31:04.962Z,36.10
2017-07-08T15:33:32.420Z,36.20
2017-07-08T15:36:00.625Z,35.60
2017-07-08T15:38:28.072Z,35.60
2017-07-08T15:40:55.525Z,35.50
2017-07-08T15:43:22.986Z,35.60
2017-07-08T15:45:50.424Z,36.20
2017-07-08T15:48:17.884Z,37.00
2017-07-08T15:50:45.320Z,37.40
2017-07-08T15:53:13.540Z,37.30
2017-07-08T15:55:40.996Z,37.20
2017-07-08T15:58:08.448Z,36.70
2017-07-08T16:00:35.901Z,36.40
2017-07-08T16:03:03.343Z,35.70
2017-07-08T16:05:30.796Z,35.30
2017-07-08T16:07:58.243Z,35.30
2017-07-08T16:10:25.696Z,36.00
2017-07-08T16:12:53.913Z,37.40
2017-07-08T16:15:21.369Z,37.40
2017-07-08T16:17:48.824Z,37.60
2017-07-08T16:20:16.283Z,37.40
2017-07-08T16:22:43.723Z,37.50
2017-07-08T16:25:11.191Z,37.30
2017-07-08T16:27:38.627Z,37.10
2017-07-08T16:30:06.081Z,36.90
2017-07-08T16:32:33.520Z,37.20
2017-07-08T16:35:01.751Z,37.30
2017-07-08T16:37:29.197Z,37.30
2017-07-08T16:39:56.640Z,37.50
2017-07-08T16:42:24.101Z,36.90
2017-07-08T16:44:51.540Z,37.10
2017-07-08T16:47:18.997Z,37.10
2017-07-08T16:49:46.437Z,36.90
2017-07-08T16:52:13.901Z,36.60
2017-07-08T16:54:41.345Z,36.50
2017-07-08T16:57:08.802Z,36.10
2017-07-08T16:59:36.244Z,35.30
2017-07-08T17:02:03.712Z,34.80
2017-07-08T17:04:31.155Z,34.60
2017-07-08T17:06:58.628Z,34.00
2017-07-08T17:09:26.059Z,33.30
2017-07-08T17:11:53.520Z,32.80
2017-07-08T17:14:20.970Z,32.60
2017-07-08T17:16:48.443Z,31.80
2017-07-08T17:19:15.891Z,30.90
2017-07-08T17:21:43.331Z,30.90
2017-07-08T17:24:10.788Z,31.10
2017-07-08T17:26:38.233Z,31.00
2017-07-08T17:29:05.690Z,30.90
2017-07-08T17:31:33.142Z,31.00
2017-07-08T17:34:00.603Z,30.90
2017-07-08T17:36:28.043Z,30.80
2017-07-08T17:38:55.492Z,30.80
2017-07-08T17:41:22.935Z,30.80
2017-07-08T17:43:50.409Z,30.80
2017-07-08T17:46:17.843Z,30.70
2017-07-08T17:48:45.285Z,30.50
2017-07-08T17:51:12.740Z,30.40
2017-07-08T17:53:40.180Z,30.20
2017-07-08T17:56:07.636Z,30.10
2017-07-08T17:58:35.072Z,30.20
2017-07-08T18:01:02.528Z,30.10
2017-07-08T18:03:29.968Z,30.10
2017-07-08T18:05:57.420Z,29.90
2017-07-08T18:08:24.864Z,29.70
2017-07-08T18:10:52.312Z,29.60
2017-07-08T18:13:19.753Z,29.20
2017-07-08T18:15:47.204Z,29.20
2017-07-08T18:18:14.645Z,29.20
2017-07-08T18:20:42.092Z,29.10
2017-07-08T18:23:09.557Z,29.00
2017-07-08T18:25:36.996Z,29.00
2017-07-08T18:28:04.452Z,28.90
2017-07-08T18:30:31.900Z,28.90
2017-07-08T18:32:59.348Z,29.00
2017-07-08T18:35:26.792Z,28.90
2017-07-08T18:37:55.016Z,28.70
2017-07-08T18:40:22.453Z,28.70
2017-07-08T18:42:49.912Z,28.70
2017-07-08T18:45:17.348Z,28.60
2017-07-08T18:47:44.824Z,28.50
2017-07-08T18:50:12.261Z,28.30
2017-07-08T18:52:39.696Z,28.20
2017-07-08T18:55:07.913Z,28.00
2017-07-08T18:57:35.352Z,28.00
2017-07-08T19:00:02.808Z,27.90
2017-07-08T19:02:30.248Z,27.70
2017-07-08T19:04:58.472Z,27.40
2017-07-08T19:07:25.911Z,27.40
2017-07-08T19:09:53.369Z,27.20
2017-07-08T19:12:20.807Z,27.20
2017-07-08T19:14:48.268Z,27.10
2017-07-08T19:17:15.708Z,27.00
2017-07-08T19:19:43.156Z,26.80
2017-07-08T19:22:10.595Z,26.70
2017-07-08T19:24:38.065Z,26.50
2017-07-08T19:27:05.514Z,26.50
2017-07-08T19:29:32.987Z,26.20
2017-07-08T19:32:01.197Z,26.00
2017-07-08T19:34:28.645Z,25.90
2017-07-08T19:36:56.100Z,25.90
2017-07-08T19:39:23.536Z,25.80
2017-07-08T19:41:51.756Z,25.50
2017-07-08T19:44:19.204Z,25.50
2017-07-08T19:46:46.667Z,25.20
2017-07-08T19:49:14.122Z,25.00
2017-07-08T19:51:41.571Z,24.80
2017-07-08T19:54:09.012Z,24.80
2017-07-08T19:56:36.465Z,24.60
2017-07-08T19:59:03.915Z,24.60
2017-07-08T20:01:31.363Z,24.60
2017-07-08T20:03:59.583Z,24.50
2017-07-08T20:06:27.016Z,24.50
2017-07-08T20:08:54.459Z,24.30
2017-07-08T20:11:21.907Z,24.10
2017-07-08T20:13:50.128Z,23.50
2017-07-08T20:16:17.573Z,23.40
2017-07-08T20:18:45.029Z,23.10
2017-07-08T20:21:12.469Z,22.90
2017-07-08T20:23:39.918Z,22.70
2017-07-08T20:26:07.364Z,22.50
2017-07-08T20:28:34.812Z,22.40
2017-07-08T20:31:02.258Z,22.50
2017-07-08T20:33:29.707Z,22.50
2017-07-08T20:36:00.580Z,22.60
2017-07-08T20:38:28.033Z,22.70
2017-07-08T20:40:55.482Z,22.70
2017-07-08T20:43:22.925Z,22.80
2017-07-08T20:45:50.367Z,22.80
2017-07-08T20:48:17.837Z,22.80
2017-07-08T20:50:45.268Z,22.80
2017-07-08T20:53:12.716Z,22.80
2017-07-08T20:55:40.168Z,22.70
2017-07-08T20:58:07.632Z,22.70
2017-07-08T21:00:35.079Z,22.60
2017-07-08T21:03:02.516Z,22.50
2017-07-08T21:05:29.971Z,22.50
2017-07-08T21:07:57.415Z,22.40
2017-07-08T21:10:24.868Z,22.30
2017-07-08T21:12:53.091Z,22.20
2017-07-08T21:15:20.559Z,22.20
2017-07-08T21:17:47.993Z,22.30
2017-07-08T21:20:15.461Z,22.40
2017-07-08T21:22:42.903Z,22.50
2017-07-08T21:25:10.380Z,22.60
2017-07-08T21:27:37.824Z,22.70
2017-07-08T21:30:05.273Z,22.80
2017-07-08T21:32:32.712Z,22.80
2017-07-08T21:35:00.164Z,22.80
2017-07-08T21:37:27.605Z,22.70
2017-07-08T21:39:55.825Z,22.50
2017-07-08T21:42:23.279Z,22.50
2017-07-08T21:44:50.711Z,22.50
2017-07-08T21:47:18.171Z,22.40
2017-07-08T21:49:45.612Z,22.40
2017-07-08T21:52:13.828Z,22.40
2017-07-08T21:54:41.276Z,22.30
2017-07-08T21:57:08.734Z,22.40
2017-07-08T21:59:36.168Z,22.40
2017-07-08T22:02:03.623Z,22.40
2017-07-08T22:04:31.060Z,22.30
2017-07-08T22:06:59.267Z,22.10
2017-07-08T22:09:26.737Z,22.10
2017-07-08T22:11:54.187Z,22.00
2017-07-08T22:14:21.625Z,22.00
2017-07-08T22:16:49.076Z,21.90
2017-07-08T22:19:16.521Z,21.80
2017-07-08T22:21:44.749Z,21.60
2017-07-08T22:24:12.193Z,21.60
2017-07-08T22:26:39.649Z,21.50
2017-07-08T22:29:07.095Z,21.20
2017-07-08T22:31:34.544Z,21.00
2017-07-08T22:34:01.980Z,20.80
2017-07-08T22:36:30.194Z,20.70
2017-07-08T22:38:57.656Z,20.70
2017-07-08T22:41:25.096Z,20.60
2017-07-08T22:43:52.549Z,20.50
2017-07-08T22:46:19.992Z,20.60
2017-07-08T22:48:47.457Z,20.60
2017-07-08T22:51:14.897Z,20.60
2017-07-08T22:53:43.116Z,20.80
2017-07-08T22:56:10.556Z,20.70
2017-07-08T22:58:38.012Z,20.70
2017-07-08T23:01:05.455Z,20.70
2017-07-08T23:03:32.912Z,20.80
2017-07-08T23:06:00.351Z,20.80
2017-07-08T23:08:28.580Z,20.80
2017-07-08T23:10:56.024Z,20.70
2017-07-08T23:13:23.462Z,20.80
2017-07-08T23:15:50.916Z,20.70
2017-07-08T23:18:18.364Z,20.70
2017-07-08T23:20:45.818Z,20.80
2017-07-08T23:23:14.027Z,20.60
2017-07-08T23:25:41.484Z,20.60
2017-07-08T23:28:08.923Z,20.40
2017-07-08T23:30:36.376Z,20.40
2017-07-08T23:33:03.820Z,20.40
2017-07-08T23:35:32.040Z,20.30
2017-07-08T23:37:59.476Z,20.30
2017-07-08T23:40:26.928Z,20.20
2017-07-08T23:42:54.368Z,20.10
2017-07-08T23:45:21.823Z,20.00
2017-07-08T23:47:49.263Z,19.90
2017-07-08T23:50:17.488Z,19.60
2017-07-08T23:52:44.928Z,19.60
2017-07-08T23:55:12.371Z,19.40
2017-07-08T23:57:39.829Z,19.30
